createdAt,value
2018-07-14T00:00:34.413Z,101317.89
2018-07-14T00:03:01.089Z,101319.46
2018-07-14T00:05:27.777Z,101323.55
2018-07-14T00:07:54.442Z,101322.02
2018-07-14T00:10:21.140Z,101320.41
2018-07-14T00:12:47.886Z,101321.39
2018-07-14T00:15:14.561Z,101323.70
2018-07-14T00:17:41.238Z,101325.02
2018-07-14T00:20:07.924Z,101324.33
2018-07-14T00:22:35.530Z,101316.36
2018-07-14T00:25:02.209Z,101321.18
2018-07-14T00:27:29.010Z,101323.00
2018-07-14T00:29:55.688Z,101320.59
2018-07-14T00:32:22.374Z,101318.63
2018-07-14T00:34:49.151Z,101319.36
2018-07-14T00:37:15.826Z,101321.39
2018-07-14T00:39:42.505Z,101324.92
2018-07-14T00:42:09.170Z,101315.66
2018-07-14T00:44:35.846Z,101322.27
2018-07-14T00:47:04.358Z,101328.42
2018-07-14T00:49:31.044Z,101329.88
2018-07-14T00:51:57.760Z,101326.84
2018-07-14T00:54:24.448Z,101326.20
2018-07-14T00:56:51.129Z,101328.20
2018-07-14T00:59:17.787Z,101330.13
2018-07-14T01:01:44.458Z,101337.50
2018-07-14T01:04:11.108Z,101337.12
2018-07-14T01:06:37.789Z,101337.99
2018-07-14T01:09:05.026Z,101331.50
2018-07-14T01:11:31.701Z,101335.09
2018-07-14T01:13:59.193Z,101334.12
2018-07-14T01:16:25.865Z,101331.16
2018-07-14T01:18:53.468Z,101330.86
2018-07-14T01:21:21.117Z,101330.41
2018-07-14T01:23:47.820Z,101329.78
2018-07-14T01:26:15.053Z,101332.23
2018-07-14T01:28:42.637Z,101338.98
2018-07-14T01:31:09.288Z,101338.48
2018-07-14T01:33:35.950Z,101340.44
2018-07-14T01:36:03.980Z,101340.06
2018-07-14T01:38:31.568Z,101339.92
2018-07-14T01:40:58.244Z,101342.13
2018-07-14T01:43:24.924Z,101341.03
2018-07-14T01:45:51.625Z,101341.03
2018-07-14T01:48:19.197Z,101338.84
2018-07-14T01:50:45.860Z,101342.37
2018-07-14T01:53:12.533Z,101340.76
2018-07-14T01:55:39.200Z,101338.34
2018-07-14T01:58:06.710Z,101334.75
2018-07-14T02:00:35.786Z,101330.48
2018-07-14T02:03:04.837Z,101329.74
2018-07-14T02:05:31.509Z,101330.86
2018-07-14T02:07:58.189Z,101326.98
2018-07-14T02:10:25.772Z,101333.14
2018-07-14T02:12:53.332Z,101325.31
2018-07-14T02:15:21.119Z,101330.28
2018-07-14T02:17:47.804Z,101330.03
2018-07-14T02:20:15.400Z,101331.36
2018-07-14T02:22:42.048Z,101334.86
2018-07-14T02:25:08.720Z,101331.11
2018-07-14T02:27:36.176Z,101327.38
2018-07-14T02:30:04.884Z,101333.81
2018-07-14T02:32:34.017Z,101335.23
2018-07-14T02:35:01.532Z,101332.44
2018-07-14T02:37:28.287Z,101332.93
2018-07-14T02:39:54.981Z,101336.77
2018-07-14T02:42:21.634Z,101337.27
2018-07-14T02:44:48.349Z,101338.37
2018-07-14T02:47:14.982Z,101342.58
2018-07-14T02:49:41.625Z,101339.43
2018-07-14T02:52:09.201Z,101340.90
2018-07-14T02:54:36.870Z,101336.19
2018-07-14T02:57:05.622Z,101342.37
2018-07-14T02:59:35.561Z,101339.12
2018-07-14T03:02:04.412Z,101343.31
2018-07-14T03:04:31.133Z,101345.37
2018-07-14T03:06:57.797Z,101348.03
2018-07-14T03:09:24.469Z,101349.11
2018-07-14T03:11:51.167Z,101355.99
2018-07-14T03:14:17.840Z,101358.65
2018-07-14T03:16:44.521Z,101352.11
2018-07-14T03:19:12.208Z,101357.32
2018-07-14T03:21:38.849Z,101353.34
2018-07-14T03:24:05.508Z,101354.17
2018-07-14T03:26:32.189Z,101357.28
2018-07-14T03:28:58.853Z,101360.61
2018-07-14T03:31:25.520Z,101361.69
2018-07-14T03:33:52.190Z,101352.11
2018-07-14T03:36:18.891Z,101348.38
2018-07-14T03:38:45.548Z,101346.80
2018-07-14T03:41:12.204Z,101345.37
2018-07-14T03:43:38.868Z,101338.84
2018-07-14T03:46:05.933Z,101345.97
2018-07-14T03:48:34.516Z,101350.23
2018-07-14T03:51:02.091Z,101343.10
2018-07-14T03:53:28.764Z,101348.06
2018-07-14T03:55:56.385Z,101345.48
2018-07-14T03:58:23.057Z,101348.38
2018-07-14T04:00:49.720Z,101350.78
2018-07-14T04:03:17.324Z,101344.05
2018-07-14T04:05:45.001Z,101349.70
2018-07-14T04:08:11.724Z,101349.59
2018-07-14T04:10:38.388Z,101358.55
2018-07-14T04:13:05.973Z,101357.42
2018-07-14T04:15:35.080Z,101363.23
2018-07-14T04:18:04.657Z,101361.30
2018-07-14T04:20:34.345Z,101356.97
2018-07-14T04:23:02.239Z,101360.47
2018-07-14T04:25:28.908Z,101368.92
2018-07-14T04:27:55.707Z,101377.13
2018-07-14T04:30:22.360Z,101366.13
2018-07-14T04:32:50.009Z,101365.64
2018-07-14T04:35:17.630Z,101370.46
2018-07-14T04:37:45.328Z,101374.23
2018-07-14T04:40:12.953Z,101369.72
2018-07-14T04:42:39.644Z,101372.14
2018-07-14T04:45:06.362Z,101373.15
2018-07-14T04:47:36.429Z,101369.37
2018-07-14T04:50:04.306Z,101369.52
2018-07-14T04:52:31.061Z,101369.97
2018-07-14T04:54:57.740Z,101382.55
2018-07-14T04:57:24.415Z,101378.22
2018-07-14T04:59:51.061Z,101376.75
2018-07-14T05:02:17.729Z,101379.55
2018-07-14T05:04:44.381Z,101371.19
2018-07-14T05:07:11.098Z,101369.97
2018-07-14T05:09:38.539Z,101370.11
2018-07-14T05:12:06.592Z,101371.20
2018-07-14T05:14:34.182Z,101374.23
2018-07-14T05:17:00.856Z,101375.31
2018-07-14T05:19:27.635Z,101377.48
2018-07-14T05:21:55.152Z,101380.00
2018-07-14T05:24:22.804Z,101380.14
2018-07-14T05:26:50.512Z,101390.02
2018-07-14T05:29:17.300Z,101395.72
2018-07-14T05:31:44.781Z,101399.70
2018-07-14T05:34:11.461Z,101393.66
2018-07-14T05:36:38.120Z,101395.59
2018-07-14T05:39:05.742Z,101391.11
2018-07-14T05:41:36.493Z,101397.30
2018-07-14T05:44:05.715Z,101396.94
2018-07-14T05:46:34.091Z,101397.64
2018-07-14T05:49:00.766Z,101400.65
2018-07-14T05:51:28.259Z,101397.75
2018-07-14T05:53:54.972Z,101402.12
2018-07-14T05:56:21.632Z,101399.32
2018-07-14T05:58:48.417Z,101398.10
2018-07-14T06:01:15.120Z,101402.08
2018-07-14T06:03:41.828Z,101403.52
2018-07-14T06:06:08.473Z,101405.93
2018-07-14T06:08:35.152Z,101401.80
2018-07-14T06:11:01.793Z,101406.98
2018-07-14T06:13:28.628Z,101407.19
2018-07-14T06:15:55.261Z,101404.27
2018-07-14T06:18:24.108Z,101412.80
2018-07-14T06:20:51.646Z,101416.39
2018-07-14T06:23:18.392Z,101427.23
2018-07-14T06:25:46.460Z,101420.34
2018-07-14T06:28:13.114Z,101415.41
2018-07-14T06:30:40.757Z,101423.24
2018-07-14T06:33:07.544Z,101421.80
2018-07-14T06:35:35.621Z,101421.91
2018-07-14T06:38:04.139Z,101428.66
2018-07-14T06:40:31.613Z,101430.37
2018-07-14T06:42:59.255Z,101428.21
2018-07-14T06:45:25.932Z,101428.21
2018-07-14T06:47:52.628Z,101433.17
2018-07-14T06:50:19.319Z,101444.50
2018-07-14T06:52:46.045Z,101439.19
2018-07-14T06:55:12.889Z,101438.39
2018-07-14T06:57:39.564Z,101442.23
2018-07-14T07:00:06.321Z,101444.31
2018-07-14T07:02:34.675Z,101443.08
2018-07-14T07:05:02.153Z,101446.81
2018-07-14T07:07:28.824Z,101443.45
2018-07-14T07:09:55.531Z,101438.63
2018-07-14T07:12:22.998Z,101443.08
2018-07-14T07:14:50.660Z,101439.68
2018-07-14T07:17:18.238Z,101443.56
2018-07-14T07:19:44.940Z,101437.77
2018-07-14T07:22:11.745Z,101444.99
2018-07-14T07:24:39.481Z,101444.50
2018-07-14T07:27:06.964Z,101449.51
2018-07-14T07:29:35.097Z,101444.55
2018-07-14T07:32:01.880Z,101447.34
2018-07-14T07:34:28.590Z,101442.03
2018-07-14T07:36:55.252Z,101449.27
2018-07-14T07:39:22.378Z,101439.38
2018-07-14T07:41:50.917Z,101443.00
2018-07-14T07:44:17.668Z,101435.98
2018-07-14T07:46:44.320Z,101440.70
2018-07-14T07:49:11.131Z,101440.06
2018-07-14T07:51:37.805Z,101441.54
2018-07-14T07:54:05.700Z,101441.05
2018-07-14T07:56:32.392Z,101439.86
2018-07-14T07:58:59.933Z,101443.70
2018-07-14T08:01:26.598Z,101443.25
2018-07-14T08:03:53.234Z,101447.34
2018-07-14T08:06:19.886Z,101446.71
2018-07-14T08:08:46.610Z,101454.48
2018-07-14T08:11:13.248Z,101446.40
2018-07-14T08:13:40.761Z,101449.65
2018-07-14T08:16:07.428Z,101454.97
2018-07-14T08:18:35.593Z,101452.17
2018-07-14T08:21:04.480Z,101450.34
2018-07-14T08:23:32.042Z,101448.22
2018-07-14T08:25:59.552Z,101448.33
2018-07-14T08:28:26.344Z,101449.41
2018-07-14T08:30:53.012Z,101445.07
2018-07-14T08:33:20.597Z,101446.50
2018-07-14T08:35:47.241Z,101439.52
2018-07-14T08:38:14.722Z,101443.02
2018-07-14T08:40:41.376Z,101436.86
2018-07-14T08:43:08.140Z,101439.52
2018-07-14T08:45:34.840Z,101442.91
2018-07-14T08:48:01.493Z,101442.17
2018-07-14T08:50:28.169Z,101448.32
2018-07-14T08:52:54.820Z,101446.89
2018-07-14T08:55:21.496Z,101443.16
2018-07-14T08:57:48.145Z,101442.52
2018-07-14T09:00:14.834Z,101439.06
2018-07-14T09:02:41.518Z,101442.06
2018-07-14T09:05:08.181Z,101437.73
2018-07-14T09:07:36.013Z,101439.66
2018-07-14T09:10:04.550Z,101441.13
2018-07-14T09:12:31.212Z,101438.57
2018-07-14T09:14:57.876Z,101437.88
2018-07-14T09:17:24.538Z,101437.14
2018-07-14T09:19:51.208Z,101443.05
2018-07-14T09:22:17.863Z,101441.86
2018-07-14T09:24:44.509Z,101441.52
2018-07-14T09:27:11.172Z,101440.73
2018-07-14T09:29:37.814Z,101443.78
2018-07-14T09:32:05.632Z,101442.20
2018-07-14T09:34:33.384Z,101449.45
2018-07-14T09:37:00.992Z,101443.78
2018-07-14T09:39:28.517Z,101450.28
2018-07-14T09:41:56.208Z,101442.56
2018-07-14T09:44:23.158Z,101443.41
2018-07-14T09:46:49.812Z,101446.44
2018-07-14T09:49:16.632Z,101447.98
2018-07-14T09:51:43.349Z,101442.45
2018-07-14T09:54:10.090Z,101450.14
2018-07-14T09:56:36.856Z,101446.26
2018-07-14T09:59:05.646Z,101447.27
2018-07-14T10:01:34.682Z,101436.05
2018-07-14T10:04:01.337Z,101441.72
2018-07-14T10:06:28.017Z,101444.03
2018-07-14T10:08:54.665Z,101437.59
2018-07-14T10:11:21.492Z,101440.04
2018-07-14T10:13:48.547Z,101430.25
2018-07-14T10:16:34.808Z,101432.63
2018-07-14T10:19:01.473Z,101436.19
2018-07-14T10:21:28.249Z,101436.55
2018-07-14T10:23:54.892Z,101435.42
2018-07-14T10:26:21.569Z,101440.60
2018-07-14T10:28:49.081Z,101444.23
2018-07-14T10:31:15.924Z,101443.05
2018-07-14T10:33:42.692Z,101440.04
2018-07-14T10:36:09.299Z,101441.37
2018-07-14T10:38:35.990Z,101436.19
2018-07-14T10:41:05.172Z,101433.02
2018-07-14T10:43:31.805Z,101433.15
2018-07-14T10:45:58.444Z,101431.44
2018-07-14T10:48:26.002Z,101423.71
2018-07-14T10:50:53.514Z,101428.19
2018-07-14T10:53:21.133Z,101426.37
2018-07-14T10:55:47.787Z,101429.27
2018-07-14T10:58:14.511Z,101421.20
2018-07-14T11:00:41.152Z,101417.45
2018-07-14T11:03:07.814Z,101415.02
2018-07-14T11:05:35.632Z,101426.75
2018-07-14T11:08:02.282Z,101427.95
2018-07-14T11:10:30.009Z,101417.45
2018-07-14T11:12:56.660Z,101424.94
2018-07-14T11:15:24.072Z,101426.62
2018-07-14T11:17:50.767Z,101424.70
2018-07-14T11:20:17.393Z,101421.94
2018-07-14T11:22:44.029Z,101416.62
2018-07-14T11:25:11.546Z,101422.28
2018-07-14T11:27:38.213Z,101422.77
2018-07-14T11:30:05.661Z,101422.77
2018-07-14T11:32:32.290Z,101417.77
2018-07-14T11:34:58.940Z,101413.00
2018-07-14T11:37:25.600Z,101412.95
2018-07-14T11:39:52.260Z,101412.91
2018-07-14T11:42:18.926Z,101418.06
2018-07-14T11:44:45.585Z,101419.00
2018-07-14T11:47:12.247Z,101410.53
2018-07-14T11:49:38.918Z,101415.45
2018-07-14T11:52:06.041Z,101416.44
2018-07-14T11:54:33.585Z,101416.05
2018-07-14T11:57:01.342Z,101407.29
2018-07-14T11:59:27.996Z,101406.55
2018-07-14T12:01:54.671Z,101412.91
2018-07-14T12:04:21.507Z,101413.89
2018-07-14T12:06:48.524Z,101406.89
2018-07-14T12:09:15.419Z,101401.92
2018-07-14T12:11:42.229Z,101395.91
2018-07-14T12:14:08.955Z,101401.32
2018-07-14T12:16:37.262Z,101390.45
2018-07-14T12:19:05.393Z,101390.59
2018-07-14T12:21:32.106Z,101391.09
2018-07-14T12:23:58.804Z,101388.77
2018-07-14T12:26:25.516Z,101384.20
2018-07-14T12:28:52.165Z,101389.17
2018-07-14T12:31:18.817Z,101376.48
2018-07-14T12:33:45.469Z,101375.78
2018-07-14T12:36:12.978Z,101375.64
2018-07-14T12:38:39.874Z,101372.03
2018-07-14T12:41:06.534Z,101367.06
2018-07-14T12:43:35.358Z,101375.53
2018-07-14T12:46:02.040Z,101375.30
2018-07-14T12:48:28.813Z,101372.98
2018-07-14T12:50:55.476Z,101363.86
2018-07-14T12:53:22.310Z,101366.30
2018-07-14T12:55:48.951Z,101369.09
2018-07-14T12:58:15.620Z,101368.05
2018-07-14T13:00:43.152Z,101360.09
2018-07-14T13:03:09.832Z,101360.28
2018-07-14T13:05:36.476Z,101358.51
2018-07-14T13:08:06.368Z,101362.80
2018-07-14T13:10:34.645Z,101364.03
2018-07-14T13:13:01.300Z,101356.05
2018-07-14T13:15:28.169Z,101355.61
2018-07-14T13:17:54.841Z,101349.76
2018-07-14T13:20:21.494Z,101351.23
2018-07-14T13:22:48.150Z,101351.91
2018-07-14T13:25:15.768Z,101346.90
2018-07-14T13:27:42.428Z,101350.88
2018-07-14T13:30:09.152Z,101346.76
2018-07-14T13:32:35.766Z,101343.16
2018-07-14T13:35:03.626Z,101346.08
2018-07-14T13:37:30.404Z,101345.70
2018-07-14T13:39:57.089Z,101340.55
2018-07-14T13:42:23.751Z,101336.66
2018-07-14T13:44:51.309Z,101326.77
2018-07-14T13:47:18.763Z,101329.88
2018-07-14T13:49:45.437Z,101335.43
2018-07-14T13:52:12.141Z,101320.91
2018-07-14T13:54:38.912Z,101324.16
2018-07-14T13:57:06.161Z,101319.43
2018-07-14T13:59:34.712Z,101318.68
2018-07-14T14:02:01.510Z,101325.44
2018-07-14T14:04:28.170Z,101314.26
2018-07-14T14:06:54.898Z,101313.86
2018-07-14T14:09:22.373Z,101313.48
2018-07-14T14:11:49.028Z,101314.11
2018-07-14T14:14:15.684Z,101307.81
2018-07-14T14:16:42.340Z,101308.22
2018-07-14T14:19:09.013Z,101303.88
2018-07-14T14:21:37.027Z,101292.61
2018-07-14T14:24:05.453Z,101296.25
2018-07-14T14:26:32.105Z,101293.74
2018-07-14T14:28:59.643Z,101285.42
2018-07-14T14:31:27.129Z,101288.28
2018-07-14T14:33:53.841Z,101287.09
2018-07-14T14:36:20.799Z,101279.33
2018-07-14T14:38:47.502Z,101280.51
2018-07-14T14:41:14.164Z,101281.05
2018-07-14T14:43:41.002Z,101284.44
2018-07-14T14:46:07.780Z,101280.11
2018-07-14T14:48:34.917Z,101277.66
2018-07-14T14:51:03.493Z,101281.78
2018-07-14T14:53:30.157Z,101279.73
2018-07-14T14:55:57.837Z,101282.19
2018-07-14T14:58:24.475Z,101281.55
2018-07-14T15:00:52.230Z,101274.06
2018-07-14T15:03:18.896Z,101273.09
2018-07-14T15:05:45.564Z,101266.73
2018-07-14T15:08:13.225Z,101268.80
2018-07-14T15:10:39.901Z,101263.58
2018-07-14T15:13:07.476Z,101266.93
2018-07-14T15:15:36.457Z,101265.89
2018-07-14T15:18:04.453Z,101260.92
2018-07-14T15:20:31.153Z,101264.82
2018-07-14T15:22:58.874Z,101264.42
2018-07-14T15:25:25.553Z,101265.49
2018-07-14T15:27:53.086Z,101261.85
2018-07-14T15:30:19.808Z,101265.20
2018-07-14T15:32:47.572Z,101257.86
2018-07-14T15:35:15.082Z,101262.34
2018-07-14T15:37:42.579Z,101253.64
2018-07-14T15:40:10.080Z,101252.66
2018-07-14T15:42:36.761Z,101251.13
2018-07-14T15:45:05.521Z,101249.17
2018-07-14T15:47:34.569Z,101251.13
2018-07-14T15:50:01.247Z,101254.39
2018-07-14T15:52:28.050Z,101250.30
2018-07-14T15:54:55.813Z,101249.02
2018-07-14T15:57:25.478Z,101251.13
2018-07-14T15:59:52.181Z,101245.33
2018-07-14T16:02:18.837Z,101245.96
2018-07-14T16:04:46.492Z,101247.23
2018-07-14T16:07:16.292Z,101244.34
2018-07-14T16:09:43.115Z,101233.86
2018-07-14T16:12:09.964Z,101243.41
2018-07-14T16:14:36.650Z,101248.04
2018-07-14T16:17:04.776Z,101249.22
2018-07-14T16:19:31.440Z,101251.39
2018-07-14T16:21:59.029Z,101254.39
2018-07-14T16:24:25.680Z,101255.95
2018-07-14T16:26:53.400Z,101255.17
2018-07-14T16:29:20.937Z,101255.72
2018-07-14T16:31:48.597Z,101257.55
2018-07-14T16:34:15.245Z,101252.31
2018-07-14T16:36:41.932Z,101254.88
2018-07-14T16:39:09.348Z,101255.03
2018-07-14T16:41:36.086Z,101254.39
2018-07-14T16:44:05.543Z,101255.52
2018-07-14T16:46:32.221Z,101253.06
2018-07-14T16:48:59.065Z,101253.95
2018-07-14T16:51:25.745Z,101253.20
2018-07-14T16:53:53.445Z,101253.55
2018-07-14T16:56:20.093Z,101252.19
2018-07-14T16:58:46.843Z,101246.77
2018-07-14T17:01:13.497Z,101251.88
2018-07-14T17:03:40.160Z,101248.30
2018-07-14T17:06:06.822Z,101244.80
2018-07-14T17:08:34.533Z,101243.56
2018-07-14T17:11:01.207Z,101247.86
2018-07-14T17:13:27.885Z,101247.11
2018-07-14T17:15:54.568Z,101252.86
2018-07-14T17:18:22.125Z,101253.35
2018-07-14T17:20:48.821Z,101252.14
2018-07-14T17:23:15.512Z,101251.20
2018-07-14T17:25:42.173Z,101255.52
2018-07-14T17:28:08.829Z,101248.04
2018-07-14T17:30:36.421Z,101252.28
2018-07-14T17:33:04.307Z,101247.95
2018-07-14T17:35:30.979Z,101250.95
2018-07-14T17:37:57.689Z,101243.03
2018-07-14T17:40:24.344Z,101250.12
2018-07-14T17:42:51.014Z,101247.11
2018-07-14T17:45:17.680Z,101250.75
2018-07-14T17:47:44.339Z,101251.94
2018-07-14T17:50:11.016Z,101253.00
2018-07-14T17:52:37.680Z,101250.86
2018-07-14T17:55:05.808Z,101254.59
2018-07-14T17:57:32.720Z,101255.17
2018-07-14T17:59:59.434Z,101251.19
2018-07-14T18:02:26.093Z,101255.72
2018-07-14T18:04:53.682Z,101254.34
2018-07-14T18:07:20.408Z,101249.63
2018-07-14T18:09:47.086Z,101245.29
2018-07-14T18:12:14.910Z,101251.94
2018-07-14T18:14:41.651Z,101255.08
2018-07-14T18:17:09.157Z,101257.25
2018-07-14T18:19:37.322Z,101260.39
2018-07-14T18:22:05.877Z,101260.05
2018-07-14T18:24:33.565Z,101258.58
2018-07-14T18:27:00.280Z,101252.54
2018-07-14T18:29:27.902Z,101256.76
2018-07-14T18:31:55.530Z,101256.76
2018-07-14T18:34:23.001Z,101257.73
2018-07-14T18:37:01.171Z,101253.27
2018-07-14T18:39:28.916Z,101253.03
2018-07-14T18:41:55.600Z,101247.86
2018-07-14T18:44:23.248Z,101251.70
2018-07-14T18:46:50.317Z,101256.52
2018-07-14T18:49:17.937Z,101259.19
2018-07-14T18:51:44.633Z,101257.39
2018-07-14T18:54:12.313Z,101265.22
2018-07-14T18:56:39.889Z,101267.04
2018-07-14T18:59:06.574Z,101274.17
2018-07-14T19:01:34.611Z,101268.86
2018-07-14T19:04:01.324Z,101278.50
2018-07-14T19:06:28.022Z,101279.69
2018-07-14T19:08:54.736Z,101285.98
2018-07-14T19:11:22.223Z,101286.13
2018-07-14T19:13:49.005Z,101289.73
2018-07-14T19:16:16.849Z,101291.20
2018-07-14T19:18:44.484Z,101293.17
2018-07-14T19:21:11.989Z,101292.19
2018-07-14T19:23:38.685Z,101293.38
2018-07-14T19:26:06.407Z,101296.77
2018-07-14T19:28:33.405Z,101300.16
2018-07-14T19:31:00.086Z,101297.36
2018-07-14T19:33:26.768Z,101301.14
2018-07-14T19:35:53.474Z,101304.29
2018-07-14T19:38:20.133Z,101306.31
2018-07-14T19:40:46.805Z,101309.45
2018-07-14T19:43:13.436Z,101307.41
2018-07-14T19:45:40.253Z,101307.55
2018-07-14T19:48:06.917Z,101314.47
2018-07-14T19:50:35.401Z,101318.02
2018-07-14T19:53:02.097Z,101315.75
2018-07-14T19:55:30.576Z,101318.27
2018-07-14T19:57:55.564Z,101317.20
2018-07-14T20:00:23.183Z,101319.99
2018-07-14T20:02:49.850Z,101314.41
2018-07-14T20:05:20.653Z,101321.06
2018-07-14T20:07:48.617Z,101317.20
2018-07-14T20:10:16.133Z,101317.69
2018-07-14T20:12:42.845Z,101317.58
2018-07-14T20:15:09.541Z,101320.92
2018-07-14T20:17:36.238Z,101322.89
2018-07-14T20:20:05.933Z,101326.00
2018-07-14T20:22:35.668Z,101327.47
2018-07-14T20:25:03.033Z,101325.66
2018-07-14T20:27:29.746Z,101326.28
2018-07-14T20:29:57.509Z,101330.86
2018-07-14T20:32:24.304Z,101332.79
2018-07-14T20:34:51.002Z,101333.13
2018-07-14T20:37:18.694Z,101335.19
2018-07-14T20:39:46.437Z,101325.16
2018-07-14T20:42:13.108Z,101327.96
2018-07-14T20:44:40.778Z,101332.44
2018-07-14T20:47:07.433Z,101338.45
2018-07-14T20:49:36.533Z,101343.41
2018-07-14T20:52:04.757Z,101342.30
2018-07-14T20:54:33.489Z,101343.63
2018-07-14T20:57:01.167Z,101343.55
2018-07-14T20:59:27.982Z,101342.72
2018-07-14T21:01:55.705Z,101336.30
2018-07-14T21:04:23.473Z,101335.59
2018-07-14T21:06:51.097Z,101336.98
2018-07-14T21:09:18.696Z,101339.20
2018-07-14T21:11:45.556Z,101347.90
2018-07-14T21:14:12.242Z,101348.52
2018-07-14T21:16:38.937Z,101349.34
2018-07-14T21:19:05.796Z,101349.09
2018-07-14T21:21:34.333Z,101348.01
2018-07-14T21:24:01.045Z,101347.17
2018-07-14T21:26:27.728Z,101348.50
2018-07-14T21:28:55.316Z,101344.89
2018-07-14T21:31:22.545Z,101346.33
2018-07-14T21:33:50.265Z,101347.55
2018-07-14T21:36:17.912Z,101350.31
2018-07-14T21:38:44.617Z,101350.11
2018-07-14T21:41:11.489Z,101351.69
2018-07-14T21:43:38.172Z,101353.36
2018-07-14T21:46:05.958Z,101350.66
2018-07-14T21:48:33.646Z,101360.11
2018-07-14T21:51:00.313Z,101363.59
2018-07-14T21:53:26.989Z,101361.57
2018-07-14T21:55:53.665Z,101363.64
2018-07-14T21:58:20.346Z,101359.66
2018-07-14T22:00:52.609Z,101365.11
2018-07-14T22:03:19.289Z,101365.21
2018-07-14T22:05:45.962Z,101363.40
2018-07-14T22:08:12.629Z,101363.01
2018-07-14T22:10:39.482Z,101363.64
2018-07-14T22:13:07.116Z,101362.56
2018-07-14T22:15:35.745Z,101367.27
2018-07-14T22:18:03.355Z,101369.83
2018-07-14T22:20:30.057Z,101371.26
2018-07-14T22:22:56.747Z,101369.93
2018-07-14T22:25:23.464Z,101365.56
2018-07-14T22:27:50.154Z,101366.05
2018-07-14T22:30:17.816Z,101365.49
2018-07-14T22:32:44.487Z,101367.31
2018-07-14T22:35:11.174Z,101364.03
2018-07-14T22:37:37.837Z,101364.86
2018-07-14T22:40:06.168Z,101365.84
2018-07-14T22:42:33.413Z,101368.99
2018-07-14T22:45:00.096Z,101370.32
2018-07-14T22:47:26.756Z,101369.63
2018-07-14T22:49:53.483Z,101373.28
2018-07-14T22:52:20.137Z,101368.08
2018-07-14T22:54:47.790Z,101372.20
2018-07-14T22:57:14.449Z,101368.36
2018-07-14T22:59:41.169Z,101364.55
2018-07-14T23:02:07.829Z,101369.06
2018-07-14T23:04:35.554Z,101357.56
2018-07-14T23:07:02.245Z,101369.20
2018-07-14T23:09:28.917Z,101364.77
2018-07-14T23:11:55.764Z,101364.66
2018-07-14T23:14:22.421Z,101366.92
2018-07-14T23:16:49.310Z,101369.58
2018-07-14T23:19:16.001Z,101366.69
2018-07-14T23:21:42.675Z,101361.02
2018-07-14T23:24:09.374Z,101360.99
2018-07-14T23:26:36.709Z,101361.97
2018-07-14T23:29:04.073Z,101358.58
2018-07-14T23:31:30.745Z,101356.30
2018-07-14T23:33:57.401Z,101358.97
2018-07-14T23:36:24.069Z,101356.23
2018-07-14T23:38:50.751Z,101360.19
2018-07-14T23:41:18.329Z,101356.20
2018-07-14T23:43:45.854Z,101361.16
2018-07-14T23:46:15.612Z,101362.80
2018-07-14T23:48:43.233Z,101357.17
2018-07-14T23:51:11.644Z,101354.03
2018-07-14T23:53:39.260Z,101358.50
2018-07-14T23:56:08.075Z,101355.72
2018-07-14T23:58:36.493Z,101355.01
